ěÝzenÝ letovÚho provozu ╚eskÚ republiky
Letiste: LKKB Aktualizace: 25.05.2024 08:31:04  UTC
 METAR LKKB 25.05. 08:30 ...
METAR LKKB 250830Z 05004KT 340V100 9999 BKN022 19/14 Q1018 NOSIG RMK WHT WHT=
 TAF LKKB 25.05. 05:00 ...
TAF LKKB 250500Z 2506/2606 VRB02KT CAVOK      BECMG 2507/2509 06006KT 9999 SCT025      TEMPO 2509/2518 6000 SHRA BKN018TCU      PROB30 TEMPO 2510/2518 12016KT 2000 TSRA BKN015CB BKN030      BECMG 2515/2517 VRB02KT CAVOK=